sensor_id;sensor_type;location;lat;lon;timestamp;pressure;altitude;pressure_sealevel;temperature;humidity
43745;BME280;29359;53.048;8.732;2023-07-16T00:01:36;100861.97;;;18.53;95.75
43745;BME280;29359;53.048;8.732;2023-07-16T00:03:39;100878.22;;;18.50;95.64
43745;BME280;29359;53.048;8.732;2023-07-16T00:05:42;100900.66;;;18.48;96.66
43745;BME280;29359;53.048;8.732;2023-07-16T00:07:45;100882.13;;;18.45;96.88
43745;BME280;29359;53.048;8.732;2023-07-16T00:09:47;100875.91;;;18.44;96.08
43745;BME280;29359;53.048;8.732;2023-07-16T00:11:52;100867.88;;;18.44;94.50
43745;BME280;29359;53.048;8.732;2023-07-16T00:13:54;100867.78;;;18.46;93.74
43745;BME280;29359;53.048;8.732;2023-07-16T00:15:57;100859.00;;;18.44;93.16
43745;BME280;29359;53.048;8.732;2023-07-16T00:18:00;100837.72;;;18.42;92.20
43745;BME280;29359;53.048;8.732;2023-07-16T00:20:04;100836.84;;;18.42;92.34
43745;BME280;29359;53.048;8.732;2023-07-16T00:22:07;100835.22;;;18.39;91.94
43745;BME280;29359;53.048;8.732;2023-07-16T00:24:10;100836.28;;;18.37;92.70
43745;BME280;29359;53.048;8.732;2023-07-16T00:26:13;100870.34;;;18.33;94.02
43745;BME280;29359;53.048;8.732;2023-07-16T00:28:17;100879.69;;;18.26;95.60
43745;BME280;29359;53.048;8.732;2023-07-16T00:30:20;100879.97;;;18.22;96.15
43745;BME280;29359;53.048;8.732;2023-07-16T00:32:23;100873.66;;;18.23;95.14
43745;BME280;29359;53.048;8.732;2023-07-16T00:34:26;100882.53;;;18.23;94.56
43745;BME280;29359;53.048;8.732;2023-07-16T00:36:28;100887.81;;;18.25;94.16
43745;BME280;29359;53.048;8.732;2023-07-16T00:38:30;100889.69;;;18.23;94.21
43745;BME280;29359;53.048;8.732;2023-07-16T00:40:33;100873.75;;;18.21;94.65
43745;BME280;29359;53.048;8.732;2023-07-16T00:42:36;100856.06;;;18.18;94.50
43745;BME280;29359;53.048;8.732;2023-07-16T00:44:40;100873.06;;;18.17;93.96
43745;BME280;29359;53.048;8.732;2023-07-16T00:46:43;100866.94;;;18.15;93.18
43745;BME280;29359;53.048;8.732;2023-07-16T00:48:46;100871.25;;;18.18;91.72
43745;BME280;29359;53.048;8.732;2023-07-16T00:50:50;100878.31;;;18.19;93.30
43745;BME280;29359;53.048;8.732;2023-07-16T00:52:53;100887.44;;;18.15;95.16
43745;BME280;29359;53.048;8.732;2023-07-16T00:54:56;100887.63;;;18.12;96.10
43745;BME280;29359;53.048;8.732;2023-07-16T00:56:59;100889.53;;;18.10;96.56
43745;BME280;29359;53.048;8.732;2023-07-16T00:59:02;100899.53;;;18.06;97.49
43745;BME280;29359;53.048;8.732;2023-07-16T01:01:05;100925.66;;;18.01;98.98
43745;BME280;29359;53.048;8.732;2023-07-16T01:03:10;100922.50;;;17.95;100.00
43745;BME280;29359;53.048;8.732;2023-07-16T01:05:14;100918.38;;;17.89;100.00
43745;BME280;29359;53.048;8.732;2023-07-16T01:07:18;100908.53;;;17.89;100.00
43745;BME280;29359;53.048;8.732;2023-07-16T01:09:24;100910.09;;;17.94;100.00
43745;BME280;29359;53.048;8.732;2023-07-16T01:11:27;100917.16;;;17.95;100.00
43745;BME280;29359;53.048;8.732;2023-07-16T01:13:31;100913.53;;;17.96;99.84
43745;BME280;29359;53.048;8.732;2023-07-16T01:15:34;100902.94;;;17.94;100.00
43745;BME280;29359;53.048;8.732;2023-07-16T01:17:38;100905.69;;;17.93;100.00
43745;BME280;29359;53.048;8.732;2023-07-16T01:19:41;100922.66;;;17.92;100.00
43745;BME280;29359;53.048;8.732;2023-07-16T01:21:48;100920.94;;;17.91;100.00
43745;BME280;29359;53.048;8.732;2023-07-16T01:24:13;100920.84;;;17.92;100.00
43745;BME280;29359;53.048;8.732;2023-07-16T01:26:34;100912.75;;;17.94;98.92
43745;BME280;29359;53.048;8.732;2023-07-16T01:31:10;100919.91;;;17.93;97.42
43745;BME280;29359;53.048;8.732;2023-07-16T01:33:14;100919.03;;;17.93;96.22
43745;BME280;29359;53.048;8.732;2023-07-16T01:35:19;100918.97;;;17.94;96.63
43745;BME280;29359;53.048;8.732;2023-07-16T01:37:23;100920.00;;;17.92;97.31
43745;BME280;29359;53.048;8.732;2023-07-16T01:39:26;100921.81;;;17.91;97.77
43745;BME280;29359;53.048;8.732;2023-07-16T01:41:29;100924.56;;;17.89;98.25
43745;BME280;29359;53.048;8.732;2023-07-16T01:43:32;100918.44;;;17.87;98.54
43745;BME280;29359;53.048;8.732;2023-07-16T01:45:35;100918.53;;;17.86;97.90
43745;BME280;29359;53.048;8.732;2023-07-16T01:47:55;100922.06;;;17.86;95.88
43745;BME280;29359;53.048;8.732;2023-07-16T01:50:01;100925.59;;;17.87;94.22
43745;BME280;29359;53.048;8.732;2023-07-16T01:52:06;100916.63;;;17.88;93.19
43745;BME280;29359;53.048;8.732;2023-07-16T01:54:09;100919.41;;;17.86;94.95
43745;BME280;29359;53.048;8.732;2023-07-16T01:56:12;100919.56;;;17.83;96.06
43745;BME280;29359;53.048;8.732;2023-07-16T01:58:15;100909.06;;;17.80;96.69
43745;BME280;29359;53.048;8.732;2023-07-16T02:00:18;100915.28;;;17.81;96.63
43745;BME280;29359;53.048;8.732;2023-07-16T02:02:21;100907.34;;;17.79;96.49
43745;BME280;29359;53.048;8.732;2023-07-16T02:04:25;100903.72;;;17.80;95.40
43745;BME280;29359;53.048;8.732;2023-07-16T02:06:28;100902.00;;;17.79;95.34
43745;BME280;29359;53.048;8.732;2023-07-16T02:08:31;100900.28;;;17.78;94.86
43745;BME280;29359;53.048;8.732;2023-07-16T02:10:34;100902.88;;;17.80;94.44
43745;BME280;29359;53.048;8.732;2023-07-16T02:12:36;100894.09;;;17.78;94.62
43745;BME280;29359;53.048;8.732;2023-07-16T02:14:39;100901.19;;;17.77;95.26
43745;BME280;29359;53.048;8.732;2023-07-16T02:16:42;100899.56;;;17.75;95.67
43745;BME280;29359;53.048;8.732;2023-07-16T02:18:45;100905.84;;;17.74;95.99
43745;BME280;29359;53.048;8.732;2023-07-16T02:20:49;100907.66;;;17.73;95.43
43745;BME280;29359;53.048;8.732;2023-07-16T02:22:51;100899.75;;;17.72;94.89
43745;BME280;29359;53.048;8.732;2023-07-16T02:24:54;100902.31;;;17.73;94.10
43745;BME280;29359;53.048;8.732;2023-07-16T02:26:56;100915.69;;;17.73;94.65
43745;BME280;29359;53.048;8.732;2023-07-16T02:28:59;100915.75;;;17.72;95.47
43745;BME280;29359;53.048;8.732;2023-07-16T02:31:02;100923.00;;;17.70;95.59
43745;BME280;29359;53.048;8.732;2023-07-16T02:33:05;100917.75;;;17.68;95.68
43745;BME280;29359;53.048;8.732;2023-07-16T02:35:09;100921.28;;;17.69;96.05
43745;BME280;29359;53.048;8.732;2023-07-16T02:37:13;100921.38;;;17.67;96.38
43745;BME280;29359;53.048;8.732;2023-07-16T02:39:16;100917.88;;;17.65;96.85
43745;BME280;29359;53.048;8.732;2023-07-16T02:41:17;100909.28;;;17.60;98.18
43745;BME280;29359;53.048;8.732;2023-07-16T02:43:20;100920.13;;;17.57;98.97
43745;BME280;29359;53.048;8.732;2023-07-16T02:45:22;100921.94;;;17.56;99.24
43745;BME280;29359;53.048;8.732;2023-07-16T02:47:25;100911.44;;;17.53;99.76
43745;BME280;29359;53.048;8.732;2023-07-16T02:49:27;100920.38;;;17.52;99.86
43745;BME280;29359;53.048;8.732;2023-07-16T02:51:30;100922.28;;;17.50;99.94
43745;BME280;29359;53.048;8.732;2023-07-16T02:53:35;100928.66;;;17.48;100.00
43745;BME280;29359;53.048;8.732;2023-07-16T02:55:38;100927.88;;;17.46;100.00
43745;BME280;29359;53.048;8.732;2023-07-16T02:57:39;100935.03;;;17.45;100.00
43745;BME280;29359;53.048;8.732;2023-07-16T02:59:42;100929.84;;;17.42;100.00
43745;BME280;29359;53.048;8.732;2023-07-16T03:01:45;100930.81;;;17.41;100.00
43745;BME280;29359;53.048;8.732;2023-07-16T03:03:48;100935.38;;;17.39;100.00
43745;BME280;29359;53.048;8.732;2023-07-16T03:05:51;100938.03;;;17.39;100.00
43745;BME280;29359;53.048;8.732;2023-07-16T03:07:54;100929.94;;;17.41;100.00
43745;BME280;29359;53.048;8.732;2023-07-16T03:09:58;100934.34;;;17.42;100.00
43745;BME280;29359;53.048;8.732;2023-07-16T03:12:01;100936.13;;;17.41;100.00
43745;BME280;29359;53.048;8.732;2023-07-16T03:14:04;100937.09;;;17.40;100.00
43745;BME280;29359;53.048;8.732;2023-07-16T03:16:07;100944.41;;;17.37;100.00
43745;BME280;29359;53.048;8.732;2023-07-16T03:18:09;100949.75;;;17.37;100.00
43745;BME280;29359;53.048;8.732;2023-07-16T03:20:12;100956.03;;;17.36;100.00
43745;BME280;29359;53.048;8.732;2023-07-16T03:22:15;100955.22;;;17.34;100.00
43745;BME280;29359;53.048;8.732;2023-07-16T03:24:18;100953.41;;;17.34;100.00
43745;BME280;29359;53.048;8.732;2023-07-16T03:26:22;100953.34;;;17.36;100.00
43745;BME280;29359;53.048;8.732;2023-07-16T03:28:25;100952.50;;;17.35;100.00
43745;BME280;29359;53.048;8.732;2023-07-16T03:30:26;100954.28;;;17.35;100.00
43745;BME280;29359;53.048;8.732;2023-07-16T03:32:29;100957.88;;;17.34;100.00
43745;BME280;29359;53.048;8.732;2023-07-16T03:34:52;100959.78;;;17.32;100.00
43745;BME280;29359;53.048;8.732;2023-07-16T03:36:54;100964.41;;;17.28;100.00
43745;BME280;29359;53.048;8.732;2023-07-16T03:38:57;100965.28;;;17.28;100.00
43745;BME280;29359;53.048;8.732;2023-07-16T03:41:00;100962.59;;;17.28;100.00
43745;BME280;29359;53.048;8.732;2023-07-16T03:43:05;100961.66;;;17.30;100.00
43745;BME280;29359;53.048;8.732;2023-07-16T03:45:09;100966.13;;;17.29;100.00
43745;BME280;29359;53.048;8.732;2023-07-16T03:47:12;100976.19;;;17.24;100.00
43745;BME280;29359;53.048;8.732;2023-07-16T03:49:15;100978.78;;;17.25;100.00
43745;BME280;29359;53.048;8.732;2023-07-16T03:51:17;100980.59;;;17.25;100.00
43745;BME280;29359;53.048;8.732;2023-07-16T03:53:20;100986.94;;;17.22;100.00
43745;BME280;29359;53.048;8.732;2023-07-16T03:55:23;100990.41;;;17.24;100.00
43745;BME280;29359;53.048;8.732;2023-07-16T03:57:27;100991.34;;;17.23;100.00
43745;BME280;29359;53.048;8.732;2023-07-16T03:59:32;100993.06;;;17.24;100.00
43745;BME280;29359;53.048;8.732;2023-07-16T04:01:35;101001.84;;;17.26;100.00
43745;BME280;29359;53.048;8.732;2023-07-16T04:03:37;100999.97;;;17.28;100.00
43745;BME280;29359;53.048;8.732;2023-07-16T04:05:40;100996.34;;;17.30;100.00
43745;BME280;29359;53.048;8.732;2023-07-16T04:07:42;100996.34;;;17.30;100.00
43745;BME280;29359;53.048;8.732;2023-07-16T04:09:45;100992.81;;;17.29;100.00
43745;BME280;29359;53.048;8.732;2023-07-16T04:11:48;100988.50;;;17.26;100.00
43745;BME280;29359;53.048;8.732;2023-07-16T04:13:51;100993.84;;;17.26;100.00
43745;BME280;29359;53.048;8.732;2023-07-16T04:15:55;100986.00;;;17.23;100.00
43745;BME280;29359;53.048;8.732;2023-07-16T04:17:59;100989.69;;;17.21;100.00
43745;BME280;29359;53.048;8.732;2023-07-16T04:20:02;100997.78;;;17.19;100.00
43745;BME280;29359;53.048;8.732;2023-07-16T04:22:04;101003.13;;;17.19;100.00
43745;BME280;29359;53.048;8.732;2023-07-16T04:24:07;101001.47;;;17.17;100.00
43745;BME280;29359;53.048;8.732;2023-07-16T04:26:10;101001.41;;;17.18;100.00
43745;BME280;29359;53.048;8.732;2023-07-16T04:28:13;101003.81;;;17.23;100.00
43745;BME280;29359;53.048;8.732;2023-07-16T04:30:16;101002.56;;;17.30;100.00
43745;BME280;29359;53.048;8.732;2023-07-16T04:32:19;101010.88;;;17.41;100.00
43745;BME280;29359;53.048;8.732;2023-07-16T04:34:23;101006.75;;;17.51;100.00
43745;BME280;29359;53.048;8.732;2023-07-16T04:36:26;101010.56;;;17.63;100.00
43745;BME280;29359;53.048;8.732;2023-07-16T04:38:29;101009.13;;;17.73;100.00
43745;BME280;29359;53.048;8.732;2023-07-16T04:40:32;101016.75;;;17.81;100.00
43745;BME280;29359;53.048;8.732;2023-07-16T04:42:35;101018.13;;;17.88;100.00
43745;BME280;29359;53.048;8.732;2023-07-16T04:44:38;101024.00;;;17.95;100.00
43745;BME280;29359;53.048;8.732;2023-07-16T04:46:40;101028.03;;;18.02;100.00
43745;BME280;29359;53.048;8.732;2023-07-16T04:48:45;101029.34;;;18.10;100.00
43745;BME280;29359;53.048;8.732;2023-07-16T04:50:47;101028.97;;;18.16;100.00
43745;BME280;29359;53.048;8.732;2023-07-16T04:52:50;101033.22;;;18.20;100.00
43745;BME280;29359;53.048;8.732;2023-07-16T04:54:53;101027.81;;;18.22;100.00
43745;BME280;29359;53.048;8.732;2023-07-16T04:56:56;101038.22;;;18.27;100.00
43745;BME280;29359;53.048;8.732;2023-07-16T04:58:59;101034.34;;;18.32;100.00
43745;BME280;29359;53.048;8.732;2023-07-16T05:01:01;101038.81;;;18.32;100.00
43745;BME280;29359;53.048;8.732;2023-07-16T05:03:04;101038.56;;;18.36;99.89
43745;BME280;29359;53.048;8.732;2023-07-16T05:05:08;101038.22;;;18.42;99.42
43745;BME280;29359;53.048;8.732;2023-07-16T05:07:11;101035.44;;;18.44;98.91
43745;BME280;29359;53.048;8.732;2023-07-16T05:09:14;101046.72;;;18.49;98.75
43745;BME280;29359;53.048;8.732;2023-07-16T05:11:17;101035.00;;;18.51;98.40
43745;BME280;29359;53.048;8.732;2023-07-16T05:13:20;101041.88;;;18.56;98.20
43745;BME280;29359;53.048;8.732;2023-07-16T05:15:23;101048.78;;;18.60;97.65
43745;BME280;29359;53.048;8.732;2023-07-16T05:17:25;101050.50;;;18.61;97.01
43745;BME280;29359;53.048;8.732;2023-07-16T05:19:28;101051.47;;;18.60;96.51
43745;BME280;29359;53.048;8.732;2023-07-16T05:21:32;101046.38;;;18.55;96.21
43745;BME280;29359;53.048;8.732;2023-07-16T05:23:35;101046.38;;;18.55;96.30
43745;BME280;29359;53.048;8.732;2023-07-16T05:25:38;101050.94;;;18.53;95.99
43745;BME280;29359;53.048;8.732;2023-07-16T05:27:41;101047.59;;;18.49;95.40
43745;BME280;29359;53.048;8.732;2023-07-16T05:29:43;101051.31;;;18.47;95.33
43745;BME280;29359;53.048;8.732;2023-07-16T05:31:46;101054.84;;;18.47;94.89
43745;BME280;29359;53.048;8.732;2023-07-16T05:33:49;101056.38;;;18.51;94.32
43745;BME280;29359;53.048;8.732;2023-07-16T05:35:52;101055.16;;;18.57;94.37
43745;BME280;29359;53.048;8.732;2023-07-16T05:37:56;101056.72;;;18.61;93.86
43745;BME280;29359;53.048;8.732;2023-07-16T05:39:59;101056.66;;;18.63;93.45
43745;BME280;29359;53.048;8.732;2023-07-16T05:42:02;101054.84;;;18.63;93.07
43745;BME280;29359;53.048;8.732;2023-07-16T05:44:05;101058.31;;;18.65;93.09
43745;BME280;29359;53.048;8.732;2023-07-16T05:46:08;101058.31;;;18.65;92.32
43745;BME280;29359;53.048;8.732;2023-07-16T05:48:10;101064.59;;;18.64;92.07
43745;BME280;29359;53.048;8.732;2023-07-16T05:50:13;101066.50;;;18.62;91.76
43745;BME280;29359;53.048;8.732;2023-07-16T05:52:17;101058.63;;;18.59;92.00
43745;BME280;29359;53.048;8.732;2023-07-16T05:54:21;101062.97;;;18.62;92.42
43745;BME280;29359;53.048;8.732;2023-07-16T05:56:24;101070.19;;;18.60;92.17
43745;BME280;29359;53.048;8.732;2023-07-16T05:58:27;101067.59;;;18.58;91.93
43745;BME280;29359;53.048;8.732;2023-07-16T06:00:30;101064.69;;;18.63;91.70
43745;BME280;29359;53.048;8.732;2023-07-16T06:02:33;101066.41;;;18.64;91.88
43745;BME280;29359;53.048;8.732;2023-07-16T06:04:36;101063.66;;;18.65;92.06
43745;BME280;29359;53.048;8.732;2023-07-16T06:06:39;101070.66;;;18.68;92.11
43745;BME280;29359;53.048;8.732;2023-07-16T06:08:41;101070.75;;;18.66;91.70
43745;BME280;29359;53.048;8.732;2023-07-16T06:10:45;101066.41;;;18.64;91.23
43745;BME280;29359;53.048;8.732;2023-07-16T06:12:48;101078.75;;;18.66;91.09
43745;BME280;29359;53.048;8.732;2023-07-16T06:14:50;101067.97;;;18.68;90.96
43745;BME280;29359;53.048;8.732;2023-07-16T06:16:53;101072.47;;;18.67;90.72
43745;BME280;29359;53.048;8.732;2023-07-16T06:18:57;101075.06;;;18.69;90.38
43745;BME280;29359;53.048;8.732;2023-07-16T06:20:58;101066.16;;;18.68;90.18
43745;BME280;29359;53.048;8.732;2023-07-16T06:23:01;101071.59;;;18.67;89.00
43745;BME280;29359;53.048;8.732;2023-07-16T06:25:05;101061.59;;;18.70;88.75
43745;BME280;29359;53.048;8.732;2023-07-16T06:27:09;101071.84;;;18.78;88.65
43745;BME280;29359;53.048;8.732;2023-07-16T06:29:12;101075.78;;;18.87;88.42
43745;BME280;29359;53.048;8.732;2023-07-16T06:31:15;101077.41;;;18.89;88.16
43745;BME280;29359;53.048;8.732;2023-07-16T06:33:18;101080.69;;;18.94;87.60
43745;BME280;29359;53.048;8.732;2023-07-16T06:35:21;101089.09;;;19.02;87.43
43745;BME280;29359;53.048;8.732;2023-07-16T06:37:23;101084.34;;;19.07;87.01
43745;BME280;29359;53.048;8.732;2023-07-16T06:39:27;101085.06;;;19.11;87.31
43745;BME280;29359;53.048;8.732;2023-07-16T06:41:29;101085.63;;;19.16;87.11
43745;BME280;29359;53.048;8.732;2023-07-16T06:43:35;101095.97;;;19.22;86.94
43745;BME280;29359;53.048;8.732;2023-07-16T06:45:36;101089.38;;;19.28;86.88
43745;BME280;29359;53.048;8.732;2023-07-16T06:47:39;101096.19;;;19.33;86.57
43745;BME280;29359;53.048;8.732;2023-07-16T06:49:42;101095.41;;;19.31;85.84
43745;BME280;29359;53.048;8.732;2023-07-16T06:51:45;101098.75;;;19.35;85.98
43745;BME280;29359;53.048;8.732;2023-07-16T06:53:48;101111.09;;;19.37;86.72
43745;BME280;29359;53.048;8.732;2023-07-16T06:55:51;101109.69;;;19.46;87.25
43745;BME280;29359;53.048;8.732;2023-07-16T06:57:54;101114.84;;;19.49;86.91
43745;BME280;29359;53.048;8.732;2023-07-16T06:59:58;101111.09;;;19.53;86.98
43745;BME280;29359;53.048;8.732;2023-07-16T07:02:00;101103.63;;;19.58;86.69
43745;BME280;29359;53.048;8.732;2023-07-16T07:04:04;101116.56;;;19.66;87.09
43745;BME280;29359;53.048;8.732;2023-07-16T07:06:07;101113.13;;;19.78;86.41
43745;BME280;29359;53.048;8.732;2023-07-16T07:08:12;101116.84;;;19.75;85.21
43745;BME280;29359;53.048;8.732;2023-07-16T07:10:15;101117.59;;;19.63;85.01
43745;BME280;29359;53.048;8.732;2023-07-16T07:12:17;101116.56;;;19.50;85.36
43745;BME280;29359;53.048;8.732;2023-07-16T07:14:20;101116.94;;;19.44;85.70
43745;BME280;29359;53.048;8.732;2023-07-16T07:16:24;101106.25;;;19.44;86.25
43745;BME280;29359;53.048;8.732;2023-07-16T07:18:27;101112.53;;;19.43;87.03
43745;BME280;29359;53.048;8.732;2023-07-16T07:20:30;101117.81;;;19.44;86.15
43745;BME280;29359;53.048;8.732;2023-07-16T07:22:33;101123.75;;;19.50;85.77
43745;BME280;29359;53.048;8.732;2023-07-16T07:24:36;101121.00;;;19.51;85.05
43745;BME280;29359;53.048;8.732;2023-07-16T07:26:38;101114.25;;;19.60;84.20
43745;BME280;29359;53.048;8.732;2023-07-16T07:28:41;101118.75;;;19.73;84.66
43745;BME280;29359;53.048;8.732;2023-07-16T07:30:44;101125.84;;;19.74;83.26
43745;BME280;29359;53.048;8.732;2023-07-16T07:32:49;101123.84;;;19.78;80.95
43745;BME280;29359;53.048;8.732;2023-07-16T07:34:51;101122.97;;;19.77;78.92
43745;BME280;29359;53.048;8.732;2023-07-16T07:36:54;101135.31;;;19.80;77.63
43745;BME280;29359;53.048;8.732;2023-07-16T07:38:57;101133.78;;;19.90;77.35
43745;BME280;29359;53.048;8.732;2023-07-16T07:41:00;101133.81;;;20.04;77.07
43745;BME280;29359;53.048;8.732;2023-07-16T07:43:03;101128.91;;;20.11;75.14
43745;BME280;29359;53.048;8.732;2023-07-16T07:45:07;101121.84;;;20.10;73.35
43745;BME280;29359;53.048;8.732;2023-07-16T07:47:10;101128.25;;;20.07;73.66
43745;BME280;29359;53.048;8.732;2023-07-16T07:49:14;101128.34;;;20.06;73.60
43745;BME280;29359;53.048;8.732;2023-07-16T07:51:17;101123.94;;;20.05;73.22
43745;BME280;29359;53.048;8.732;2023-07-16T07:53:20;101132.34;;;20.13;73.62
43745;BME280;29359;53.048;8.732;2023-07-16T07:55:23;101132.94;;;20.18;73.90
43745;BME280;29359;53.048;8.732;2023-07-16T07:57:26;101141.81;;;20.19;73.71
43745;BME280;29359;53.048;8.732;2023-07-16T07:59:29;101131.97;;;20.19;74.04
43745;BME280;29359;53.048;8.732;2023-07-16T08:01:32;101127.16;;;20.24;73.57
43745;BME280;29359;53.048;8.732;2023-07-16T08:03:35;101128.91;;;20.25;72.79
43745;BME280;29359;53.048;8.732;2023-07-16T08:05:39;101135.69;;;20.31;71.94
43745;BME280;29359;53.048;8.732;2023-07-16T08:07:42;101133.97;;;20.30;69.20
43745;BME280;29359;53.048;8.732;2023-07-16T08:09:45;101140.88;;;20.20;69.53
43745;BME280;29359;53.048;8.732;2023-07-16T08:11:48;101145.38;;;20.19;71.15
43745;BME280;29359;53.048;8.732;2023-07-16T08:13:51;101158.00;;;20.31;71.39
43745;BME280;29359;53.048;8.732;2023-07-16T08:15:54;101151.72;;;20.47;71.07
43745;BME280;29359;53.048;8.732;2023-07-16T08:17:57;101155.63;;;20.55;69.72
43745;BME280;29359;53.048;8.732;2023-07-16T08:20:01;101155.31;;;20.60;67.83
43745;BME280;29359;53.048;8.732;2023-07-16T08:22:06;101155.50;;;20.57;66.31
43745;BME280;29359;53.048;8.732;2023-07-16T08:24:09;101175.63;;;20.64;67.54
43745;BME280;29359;53.048;8.732;2023-07-16T08:26:12;101172.31;;;20.73;67.90
43745;BME280;29359;53.048;8.732;2023-07-16T08:28:15;101172.88;;;20.78;66.71
43745;BME280;29359;53.048;8.732;2023-07-16T08:30:18;101167.91;;;20.86;66.76
43745;BME280;29359;53.048;8.732;2023-07-16T08:32:22;101173.72;;;20.93;65.42
43745;BME280;29359;53.048;8.732;2023-07-16T08:34:25;101176.22;;;20.96;63.99
43745;BME280;29359;53.048;8.732;2023-07-16T08:36:28;101181.56;;;20.96;64.36
43745;BME280;29359;53.048;8.732;2023-07-16T08:38:32;101182.22;;;20.99;64.99
43745;BME280;29359;53.048;8.732;2023-07-16T08:40:34;101182.13;;;21.01;63.93
43745;BME280;29359;53.048;8.732;2023-07-16T08:42:37;101187.09;;;21.07;64.86
43745;BME280;29359;53.048;8.732;2023-07-16T08:44:40;101187.19;;;21.06;64.61
43745;BME280;29359;53.048;8.732;2023-07-16T08:46:44;101184.91;;;20.99;66.07
43745;BME280;29359;53.048;8.732;2023-07-16T08:48:48;101181.28;;;21.00;65.66
43745;BME280;29359;53.048;8.732;2023-07-16T08:50:51;101185.31;;;20.93;64.26
43745;BME280;29359;53.048;8.732;2023-07-16T08:52:55;101174.81;;;20.76;63.38
43745;BME280;29359;53.048;8.732;2023-07-16T08:54:59;101187.31;;;20.63;65.13
43745;BME280;29359;53.048;8.732;2023-07-16T08:57:02;101189.81;;;20.52;63.96
43745;BME280;29359;53.048;8.732;2023-07-16T08:59:05;101196.81;;;20.54;64.18
43745;BME280;29359;53.048;8.732;2023-07-16T09:01:08;101197.88;;;20.52;63.66
43745;BME280;29359;53.048;8.732;2023-07-16T09:03:12;101197.00;;;20.51;64.87
43745;BME280;29359;53.048;8.732;2023-07-16T09:05:20;101198.78;;;20.65;66.35
43745;BME280;29359;53.048;8.732;2023-07-16T09:07:39;101198.19;;;20.74;64.30
43745;BME280;29359;53.048;8.732;2023-07-16T09:09:42;101212.88;;;20.83;63.20
43745;BME280;29359;53.048;8.732;2023-07-16T09:11:47;101208.81;;;20.90;62.58
43745;BME280;29359;53.048;8.732;2023-07-16T09:13:51;101208.13;;;21.00;62.63
43745;BME280;29359;53.048;8.732;2023-07-16T09:15:54;101201.63;;;21.17;64.58
43745;BME280;29359;53.048;8.732;2023-07-16T09:17:57;101204.63;;;21.27;63.41
43745;BME280;29359;53.048;8.732;2023-07-16T09:20:02;101217.28;;;21.25;63.56
43745;BME280;29359;53.048;8.732;2023-07-16T09:22:05;101224.16;;;21.15;61.98
43745;BME280;29359;53.048;8.732;2023-07-16T09:24:09;101216.72;;;21.06;61.70
43745;BME280;29359;53.048;8.732;2023-07-16T09:26:12;101226.25;;;20.97;61.41
43745;BME280;29359;53.048;8.732;2023-07-16T09:28:18;101219.06;;;20.97;62.34
43745;BME280;29359;53.048;8.732;2023-07-16T09:30:22;101230.69;;;21.11;63.03
43745;BME280;29359;53.048;8.732;2023-07-16T09:32:32;101219.97;;;21.11;59.90
43745;BME280;29359;53.048;8.732;2023-07-16T09:34:35;101224.78;;;21.06;59.29
43745;BME280;29359;53.048;8.732;2023-07-16T09:36:38;101229.69;;;20.99;59.15
43745;BME280;29359;53.048;8.732;2023-07-16T09:38:40;101234.00;;;21.01;60.41
43745;BME280;29359;53.048;8.732;2023-07-16T09:40:44;101237.59;;;21.15;60.38
43745;BME280;29359;53.048;8.732;2023-07-16T09:42:47;101236.22;;;21.22;60.16
43745;BME280;29359;53.048;8.732;2023-07-16T09:44:53;101237.88;;;21.24;59.07
43745;BME280;29359;53.048;8.732;2023-07-16T09:46:56;101244.03;;;21.26;59.19
43745;BME280;29359;53.048;8.732;2023-07-16T09:48:59;101236.09;;;21.25;59.17
43745;BME280;29359;53.048;8.732;2023-07-16T09:51:02;101241.03;;;21.31;59.50
43745;BME280;29359;53.048;8.732;2023-07-16T09:53:05;101233.34;;;21.39;59.47
43745;BME280;29359;53.048;8.732;2023-07-16T09:55:09;101239.81;;;21.49;59.65
43745;BME280;29359;53.048;8.732;2023-07-16T09:57:11;101234.56;;;21.60;59.16
43745;BME280;29359;53.048;8.732;2023-07-16T09:59:20;101240.53;;;21.78;61.33
43745;BME280;29359;53.048;8.732;2023-07-16T10:01:28;101240.31;;;21.94;58.38
43745;BME280;29359;53.048;8.732;2023-07-16T10:03:31;101248.19;;;21.97;57.18
43745;BME280;29359;53.048;8.732;2023-07-16T10:05:36;101249.16;;;21.96;57.93
43745;BME280;29359;53.048;8.732;2023-07-16T10:07:39;101237.88;;;22.04;56.67
43745;BME280;29359;53.048;8.732;2023-07-16T10:09:51;101238.44;;;22.09;56.46
43745;BME280;29359;53.048;8.732;2023-07-16T10:11:55;101234.38;;;22.16;58.42
43745;BME280;29359;53.048;8.732;2023-07-16T10:13:58;101238.13;;;22.26;58.56
43745;BME280;29359;53.048;8.732;2023-07-16T10:16:01;101232.19;;;22.34;58.23
43745;BME280;29359;53.048;8.732;2023-07-16T10:18:05;101249.31;;;22.20;55.62
43745;BME280;29359;53.048;8.732;2023-07-16T10:20:09;101243.06;;;22.07;55.57
43745;BME280;29359;53.048;8.732;2023-07-16T10:22:11;101252.44;;;22.14;57.41
43745;BME280;29359;53.048;8.732;2023-07-16T10:24:16;101254.81;;;22.18;57.40
43745;BME280;29359;53.048;8.732;2023-07-16T10:26:26;101250.72;;;22.25;57.08
43745;BME280;29359;53.048;8.732;2023-07-16T10:28:29;101244.69;;;22.35;57.17
43745;BME280;29359;53.048;8.732;2023-07-16T10:30:33;101241.53;;;22.53;57.46
43745;BME280;29359;53.048;8.732;2023-07-16T10:32:36;101255.41;;;22.73;55.95
43745;BME280;29359;53.048;8.732;2023-07-16T10:34:41;101260.09;;;22.95;55.80
43745;BME280;29359;53.048;8.732;2023-07-16T10:36:44;101256.47;;;22.83;53.76
43745;BME280;29359;53.048;8.732;2023-07-16T10:38:46;101261.34;;;22.65;54.64
43745;BME280;29359;53.048;8.732;2023-07-16T10:40:49;101257.50;;;22.56;55.56
43745;BME280;29359;53.048;8.732;2023-07-16T10:42:52;101260.19;;;22.56;54.40
43745;BME280;29359;53.048;8.732;2023-07-16T10:44:57;101260.28;;;22.55;57.36
43745;BME280;29359;53.048;8.732;2023-07-16T10:47:01;101268.22;;;22.69;55.83